Pagrindinis puslapis
METAR-TAF:

METAR-TAF

Oro uostai :

Namsos, Norvegija

platuma: 64-28N, ilguma: 011-35E, Aukštis: 0 m

Dabartinis oras

Ataskaita buvo paskelbta 38 minutes, ne 00:50 UTC
Vėjas 8 kt iš Šiaurės Rytų
Temperatūra -1°C
Drėgmė 59%
Slėgis 1013 hPa
Matomumas 10 km arba daugiau

METAR: ENNM 200050Z AUTO 04008KT 9999 NCD M01/M08 Q1013

Laikas: 03:28 (01:28 UTC)

Prognozė

Ataskaita buvo paskelbta 5 valandos ir 40 minutes, ne 19:48 UTC
Prognozė galioja nuo 19 metu 19 UTC su 19 metu 21 UTC
Vėjas 8 kt iš Rytų
Matomumas 10 km arba daugiau
nėra debesų žemiau 1500 m ir nėra kamuolinių lietaus debesų

TAF: ENNM 191948Z 1919/1921 08008KT CAVOK

Orai ataskaitas ir orų prognozės (METAR, TAF).

turimą stotys yra geltonos ir raudonos taškus žemėlapyje.

Perkelti pele per norėdami pamatyti stoties vardą.

Tada spustelėkite, norėdami matyti oro stebėjimo ir prognozės.

Norėdami pakeisti žemėlapį: spustelėkite ant žalios mygtukų su juodo kryžiaus žemyn,; žalią mygtuką su brūkšneliu, jei norite nutolinti; arba žalių rodyklių gretimoms žemėlapius.


METAR-TAF: